Date,TemperatureHighF,TemperatureAvgF,TemperatureLowF,DewpointHighF,DewpointAvgF,DewpointLowF,HumidityHigh,HumidityAvg,HumidityLow,PressureMaxIn,PressureMinIn,WindSpeedMaxMPH,WindSpeedAvgMPH,GustSpeedMaxMPH,PrecipitationSumIn
2013-2-1,21,10,2,19,5,-1,96,80,68,30.40,30.17,20,13,35,0.00
2013-2-2,28,21,13,26,19,11,98,92,84,30.18,30.02,18,9,30,0.00
2013-2-3,28,22,15,22,19,13,100,88,68,30.09,29.96,21,9,33,0.00
2013-2-4,35,28,21,29,25,20,96,88,79,30.03,29.80,16,10,28,0.00
2013-2-5,39,29,19,34,27,18,98,91,81,30.08,29.82,20,8,82,0.00
2013-2-6,43,35,28,36,32,27,96,86,71,30.21,30.07,17,8,25,0.00
2013-2-7,38,35,33,38,35,32,100,98,91,30.08,29.84,18,9,33,0.38
2013-2-8,33,28,24,32,27,23,98,94,90,30.37,29.98,20,11,37,0.01
2013-2-9,35,31,27,33,29,25,95,90,83,30.37,30.04,20,13,26,0.00
2013-2-10,49,42,35,48,40,32,100,95,71,30.05,29.53,33,20,55,0.38
2013-2-11,45,35,31,38,29,26,87,78,72,30.09,29.59,32,20,58,0.01
2013-2-12,38,31,27,30,28,26,97,89,72,30.13,29.92,13,7,25,0.00
2013-2-13,47,35,26,36,31,19,99,86,59,29.92,29.74,16,7,26,0.00
2013-2-14,41,37,34,35,34,32,96,86,74,29.99,29.70,22,12,47,0.00
2013-2-15,34,29,22,33,23,16,97,78,54,30.20,29.99,16,12,30,0.00
2013-2-16,26,20,14,18,14,10,90,78,64,30.20,30.11,18,11,31,0.00
2013-2-17,35,24,11,26,18,9,94,78,61,30.20,29.94,21,10,35,0.00
2013-2-18,54,41,26,48,36,22,99,84,70,29.94,29.47,34,22,58,0.24
2013-2-19,25,20,14,22,15,9,91,81,73,30.23,29.71,30,22,53,0.24
2013-2-20,23,15,6,18,11,3,96,85,72,30.37,30.22,21,11,35,0.00
2013-2-21,29,23,15,27,22,14,100,94,85,30.35,29.88,30,15,49,0.02
2013-2-22,34,30,26,33,29,25,100,96,86,29.97,29.78,20,12,35,0.09
2013-2-23,31,26,21,26,22,19,97,87,79,29.99,29.94,16,8,29,0.01
2013-2-24,40,28,17,32,25,16,98,88,66,30.12,29.98,7,2,14,0.00
2013-2-25,43,34,26,37,32,26,98,90,75,30.13,29.86,18,10,30,0.00
2013-2-26,35,33,32,33,32,30,100,97,85,29.86,29.46,29,16,52,0.33
2013-2-27,33,32,30,33,32,30,100,99,97,29.76,29.54,15,11,25,0.14
2013-2-28,35,33,31,34,32,29,99,96,90,30.05,29.76,15,11,24,0.01